createdAt,value
2022-07-26T00:00:47.141Z,28.39
2022-07-26T00:01:47.212Z,28.39
2022-07-26T00:02:48.125Z,28.39
2022-07-26T00:03:47.298Z,28.37
2022-07-26T00:04:47.025Z,28.37
2022-07-26T00:05:47.005Z,28.37
2022-07-26T00:06:47.005Z,28.36
2022-07-26T00:07:46.984Z,28.34
2022-07-26T00:08:47.008Z,28.34
2022-07-26T00:09:48.479Z,28.33
2022-07-26T00:10:46.953Z,28.31
2022-07-26T00:11:46.948Z,28.31
2022-07-26T00:12:46.929Z,28.30
2022-07-26T00:13:46.925Z,28.29
2022-07-26T00:14:46.909Z,28.27
2022-07-26T00:15:46.886Z,28.29
2022-07-26T00:16:46.914Z,28.27
2022-07-26T00:17:46.861Z,28.27
2022-07-26T00:18:46.868Z,28.27
2022-07-26T00:19:46.843Z,28.25
2022-07-26T00:20:46.833Z,28.24
2022-07-26T00:21:46.822Z,28.24
2022-07-26T00:22:46.832Z,28.22
2022-07-26T00:23:46.834Z,28.21
2022-07-26T00:24:46.784Z,28.19
2022-07-26T00:25:46.782Z,28.19
2022-07-26T00:26:46.764Z,28.17
2022-07-26T00:27:47.414Z,28.17
2022-07-26T00:28:46.765Z,28.15
2022-07-26T00:29:46.740Z,28.12
2022-07-26T00:30:46.718Z,28.09
2022-07-26T00:31:46.775Z,28.07
2022-07-26T00:32:46.722Z,28.07
2022-07-26T00:33:46.715Z,28.04
2022-07-26T00:34:46.675Z,28.02
2022-07-26T00:35:46.669Z,28.02
2022-07-26T00:36:46.652Z,27.99
2022-07-26T00:37:46.657Z,27.97
2022-07-26T00:38:46.641Z,27.94
2022-07-26T00:39:46.619Z,27.93
2022-07-26T00:40:46.606Z,27.92
2022-07-26T00:41:46.614Z,27.90
2022-07-26T00:42:46.580Z,27.90
2022-07-26T00:43:46.592Z,27.88
2022-07-26T00:44:46.563Z,27.87
2022-07-26T00:45:46.635Z,27.84
2022-07-26T00:46:46.533Z,27.82
2022-07-26T00:47:46.533Z,27.82
2022-07-26T00:48:46.619Z,27.81
2022-07-26T00:49:46.517Z,27.79
2022-07-26T00:50:46.501Z,27.78
2022-07-26T00:51:46.708Z,27.77
2022-07-26T00:52:46.476Z,27.77
2022-07-26T00:53:46.487Z,27.75
2022-07-26T00:54:46.455Z,27.72
2022-07-26T00:55:46.455Z,27.74
2022-07-26T00:56:46.452Z,27.72
2022-07-26T00:57:46.429Z,27.70
2022-07-26T00:58:46.427Z,27.67
2022-07-26T00:59:46.398Z,27.66
2022-07-26T01:00:46.437Z,27.66
2022-07-26T01:01:46.586Z,27.65
2022-07-26T01:02:46.412Z,27.62
2022-07-26T01:03:46.369Z,27.60
2022-07-26T01:04:46.342Z,27.59
2022-07-26T01:05:46.340Z,27.57
2022-07-26T01:06:46.334Z,27.55
2022-07-26T01:07:46.312Z,27.51
2022-07-26T01:08:46.328Z,27.50
2022-07-26T01:09:46.298Z,27.49
2022-07-26T01:10:46.284Z,27.47
2022-07-26T01:11:46.295Z,27.47
2022-07-26T01:12:46.262Z,27.47
2022-07-26T01:13:46.275Z,27.44
2022-07-26T01:14:46.244Z,27.43
2022-07-26T01:15:46.259Z,27.43
2022-07-26T01:16:46.215Z,27.41
2022-07-26T01:17:46.259Z,27.40
2022-07-26T01:18:46.223Z,27.39
2022-07-26T01:19:46.188Z,27.36
2022-07-26T01:20:46.205Z,27.36
2022-07-26T01:21:46.166Z,27.34
2022-07-26T01:22:46.157Z,27.34
2022-07-26T01:23:46.167Z,27.32
2022-07-26T01:24:46.139Z,27.31
2022-07-26T01:25:46.136Z,27.29
2022-07-26T01:26:46.129Z,27.29
2022-07-26T01:27:46.122Z,27.31
2022-07-26T01:28:46.101Z,27.29
2022-07-26T01:29:46.079Z,27.31
2022-07-26T01:30:46.079Z,27.28
2022-07-26T01:31:46.155Z,27.28
2022-07-26T01:32:46.049Z,27.27
2022-07-26T01:33:46.062Z,27.25
2022-07-26T01:34:46.021Z,27.24
2022-07-26T01:35:46.023Z,27.22
2022-07-26T01:36:46.022Z,27.19
2022-07-26T01:37:46.001Z,27.17
2022-07-26T01:38:46.005Z,27.14
2022-07-26T01:39:45.982Z,27.12
2022-07-26T01:40:45.964Z,27.09
2022-07-26T01:41:45.964Z,27.06
2022-07-26T01:42:45.955Z,27.03
2022-07-26T01:43:45.957Z,27.02
2022-07-26T01:44:45.929Z,26.99
2022-07-26T01:45:45.973Z,26.95
2022-07-26T01:46:45.924Z,26.94
2022-07-26T01:47:45.899Z,26.91
2022-07-26T01:48:45.942Z,26.88
2022-07-26T01:49:45.899Z,26.85
2022-07-26T01:50:45.890Z,26.82
2022-07-26T01:51:45.866Z,26.80
2022-07-26T01:52:45.853Z,26.77
2022-07-26T01:53:45.858Z,26.76
2022-07-26T01:54:45.837Z,26.73
2022-07-26T01:55:45.823Z,26.70
2022-07-26T01:56:45.814Z,26.67
2022-07-26T01:57:45.816Z,26.65
2022-07-26T01:58:45.804Z,26.62
2022-07-26T01:59:45.815Z,26.60
2022-07-26T02:00:45.774Z,26.62
2022-07-26T02:01:45.828Z,26.60
2022-07-26T02:02:45.910Z,26.62
2022-07-26T02:03:45.745Z,26.60
2022-07-26T02:04:45.730Z,26.62
2022-07-26T02:05:45.727Z,26.58
2022-07-26T02:06:45.706Z,26.57
2022-07-26T02:07:45.696Z,26.55
2022-07-26T02:08:45.699Z,26.57
2022-07-26T02:09:45.666Z,26.55
2022-07-26T02:12:04.444Z,26.55
2022-07-26T02:13:03.231Z,26.54
2022-07-26T02:14:03.256Z,26.52
2022-07-26T02:15:03.195Z,26.51
2022-07-26T02:16:03.239Z,26.50
2022-07-26T02:17:03.174Z,26.48
2022-07-26T02:18:03.186Z,26.47
2022-07-26T02:19:03.158Z,26.47
2022-07-26T02:20:03.148Z,26.45
2022-07-26T02:21:03.137Z,26.43
2022-07-26T02:22:03.126Z,26.40
2022-07-26T02:23:03.130Z,26.37
2022-07-26T02:24:03.108Z,26.33
2022-07-26T02:25:05.241Z,26.32
2022-07-26T02:26:03.089Z,26.29
2022-07-26T02:27:03.073Z,26.26
2022-07-26T02:28:03.072Z,26.23
2022-07-26T02:29:03.051Z,26.20
2022-07-26T02:30:03.050Z,26.18
2022-07-26T02:31:03.120Z,26.15
2022-07-26T02:32:03.016Z,26.12
2022-07-26T02:33:03.022Z,26.12
2022-07-26T02:34:02.993Z,26.09
2022-07-26T02:35:02.992Z,26.06
2022-07-26T02:36:02.983Z,26.06
2022-07-26T02:37:02.977Z,26.01
2022-07-26T02:38:03.009Z,25.99
2022-07-26T02:39:02.955Z,25.98
2022-07-26T02:40:02.933Z,25.98
2022-07-26T02:41:02.944Z,25.97
2022-07-26T02:42:02.910Z,25.95
2022-07-26T02:43:03.706Z,25.95
2022-07-26T02:44:02.895Z,25.97
2022-07-26T02:45:02.889Z,25.98
2022-07-26T02:46:02.877Z,25.99
2022-07-26T02:47:02.867Z,25.99
2022-07-26T02:48:02.858Z,25.99
2022-07-26T02:49:02.917Z,25.98
2022-07-26T02:50:02.829Z,25.98
2022-07-26T02:51:02.818Z,25.95
2022-07-26T02:52:02.809Z,25.95
2022-07-26T02:53:02.827Z,25.92
2022-07-26T02:54:02.780Z,25.91
2022-07-26T02:55:02.779Z,25.91
2022-07-26T02:56:02.772Z,25.87
2022-07-26T02:57:02.751Z,25.88
2022-07-26T02:58:02.769Z,25.87
2022-07-26T02:59:02.732Z,25.87
2022-07-26T03:00:02.721Z,25.87
2022-07-26T03:01:02.712Z,25.87
2022-07-26T03:02:02.830Z,25.85
2022-07-26T03:03:02.765Z,25.83
2022-07-26T03:04:02.675Z,25.83
2022-07-26T03:05:02.678Z,25.82
2022-07-26T03:06:02.694Z,25.80
2022-07-26T03:07:02.646Z,25.80
2022-07-26T03:08:02.695Z,25.79
2022-07-26T03:09:02.634Z,25.77
2022-07-26T03:10:02.607Z,25.76
2022-07-26T03:11:02.608Z,25.76
2022-07-26T03:12:02.587Z,25.75
2022-07-26T03:13:02.607Z,25.76
2022-07-26T03:14:02.567Z,25.75
2022-07-26T03:15:02.568Z,25.75
2022-07-26T03:16:02.605Z,25.73
2022-07-26T03:17:02.548Z,25.73
2022-07-26T03:18:02.549Z,25.73
2022-07-26T03:19:02.538Z,25.75
2022-07-26T03:20:02.526Z,25.73
2022-07-26T03:21:02.501Z,25.73
2022-07-26T03:22:02.482Z,25.73
2022-07-26T03:23:02.493Z,25.72
2022-07-26T03:24:02.473Z,25.69
2022-07-26T03:25:02.470Z,25.69
2022-07-26T03:26:02.444Z,25.67
2022-07-26T03:27:02.433Z,25.65
2022-07-26T03:28:02.443Z,25.65
2022-07-26T03:29:02.412Z,25.64
2022-07-26T03:30:02.416Z,25.64
2022-07-26T03:31:02.510Z,25.62
2022-07-26T03:32:02.375Z,25.60
2022-07-26T03:33:02.384Z,25.60
2022-07-26T03:34:03.409Z,25.60
2022-07-26T03:35:02.355Z,25.57
2022-07-26T03:36:02.336Z,25.55
2022-07-26T03:37:02.327Z,25.52
2022-07-26T03:38:02.328Z,25.51
2022-07-26T03:39:02.310Z,25.47
2022-07-26T03:40:02.298Z,25.46
2022-07-26T03:41:02.301Z,25.43
2022-07-26T03:42:02.269Z,25.42
2022-07-26T03:43:02.283Z,25.40
2022-07-26T03:44:02.249Z,25.38
2022-07-26T03:45:02.243Z,25.36
2022-07-26T03:46:02.256Z,25.32
2022-07-26T03:47:02.234Z,25.30
2022-07-26T03:48:02.221Z,25.27
2022-07-26T03:49:02.269Z,25.24
2022-07-26T03:50:02.182Z,25.24
2022-07-26T03:51:02.182Z,25.20
2022-07-26T03:52:02.173Z,25.20
2022-07-26T03:53:02.163Z,25.17
2022-07-26T03:54:02.151Z,25.15
2022-07-26T03:55:02.133Z,25.14
2022-07-26T03:56:02.130Z,25.14
2022-07-26T03:57:02.112Z,25.10
2022-07-26T03:58:02.105Z,25.09
2022-07-26T03:59:02.086Z,25.09
2022-07-26T04:00:02.077Z,25.08
2022-07-26T04:01:02.122Z,25.08
2022-07-26T04:02:02.133Z,25.06
2022-07-26T04:03:02.107Z,25.09
2022-07-26T04:04:02.037Z,25.09
2022-07-26T04:05:02.025Z,25.06
2022-07-26T04:06:02.019Z,25.08
2022-07-26T04:07:03.186Z,25.06
2022-07-26T04:08:02.029Z,25.05
2022-07-26T04:09:01.979Z,25.03
2022-07-26T04:10:01.983Z,25.02
2022-07-26T04:11:01.961Z,25.02
2022-07-26T04:12:01.972Z,25.00
2022-07-26T04:13:01.966Z,24.98
2022-07-26T04:14:01.932Z,24.98
2022-07-26T04:15:01.931Z,24.98
2022-07-26T04:16:01.924Z,24.96
2022-07-26T04:17:01.935Z,24.96
2022-07-26T04:18:01.903Z,24.96
2022-07-26T04:19:01.883Z,24.96
2022-07-26T04:20:01.857Z,24.95
2022-07-26T04:21:01.852Z,24.95
2022-07-26T04:22:01.844Z,24.96
2022-07-26T04:23:01.850Z,24.96
2022-07-26T04:24:01.817Z,24.98
2022-07-26T04:25:01.817Z,24.98
2022-07-26T04:26:01.795Z,24.99
2022-07-26T04:27:01.786Z,25.00
2022-07-26T04:28:01.794Z,25.02
2022-07-26T04:29:01.777Z,25.03
2022-07-26T04:30:01.747Z,25.05
2022-07-26T04:31:01.813Z,25.05
2022-07-26T04:32:01.728Z,25.05
2022-07-26T04:33:01.736Z,25.03
2022-07-26T04:34:01.710Z,25.03
2022-07-26T04:35:01.705Z,25.02
2022-07-26T04:36:01.687Z,25.02
2022-07-26T04:37:01.688Z,25.02
2022-07-26T04:38:01.678Z,24.99
2022-07-26T04:39:01.659Z,24.99
2022-07-26T04:40:01.641Z,24.99
2022-07-26T04:41:01.642Z,24.98
2022-07-26T04:42:01.652Z,24.98
2022-07-26T04:43:01.645Z,24.96
2022-07-26T04:44:01.612Z,24.96
2022-07-26T04:45:07.456Z,24.95
2022-07-26T04:46:02.625Z,24.95
2022-07-26T04:47:01.594Z,24.96
2022-07-26T04:48:01.557Z,24.98
2022-07-26T04:49:01.593Z,24.99
2022-07-26T04:50:01.547Z,24.99
2022-07-26T04:51:01.526Z,24.99
2022-07-26T04:52:01.530Z,24.99
2022-07-26T04:53:01.542Z,24.99
2022-07-26T04:54:01.496Z,25.00
2022-07-26T04:55:01.489Z,25.00
2022-07-26T04:56:01.467Z,25.02
2022-07-26T04:57:01.493Z,25.02
2022-07-26T04:58:01.468Z,25.03
2022-07-26T04:59:01.443Z,25.05
2022-07-26T05:00:20.786Z,25.06
2022-07-26T05:01:10.094Z,25.06
2022-07-26T05:02:02.546Z,25.09
2022-07-26T05:03:01.454Z,25.10
2022-07-26T05:04:01.398Z,25.13
2022-07-26T05:05:01.407Z,25.15
2022-07-26T05:06:01.376Z,25.15
2022-07-26T05:07:01.370Z,25.18
2022-07-26T05:08:01.360Z,25.18
2022-07-26T05:09:01.350Z,25.20
2022-07-26T05:10:01.339Z,25.20
2022-07-26T05:11:01.323Z,25.21
2022-07-26T05:12:01.332Z,25.23
2022-07-26T05:13:01.307Z,25.23
2022-07-26T05:14:01.304Z,25.27
2022-07-26T05:15:01.275Z,25.28
2022-07-26T05:16:01.761Z,25.30
2022-07-26T05:17:08.954Z,25.32
2022-07-26T05:18:02.246Z,25.33
2022-07-26T05:19:02.229Z,25.35
2022-07-26T05:20:03.217Z,25.35
2022-07-26T05:21:01.207Z,25.38
2022-07-26T05:22:01.229Z,25.40
2022-07-26T05:23:01.188Z,25.40
2022-07-26T05:24:01.170Z,25.43
2022-07-26T05:25:01.168Z,25.43
2022-07-26T05:26:01.149Z,25.45
2022-07-26T05:27:01.179Z,25.45
2022-07-26T05:28:01.132Z,25.46
2022-07-26T05:29:01.159Z,25.46
2022-07-26T05:30:01.100Z,25.50
2022-07-26T05:31:01.190Z,25.47
2022-07-26T05:32:01.113Z,25.50
2022-07-26T05:33:01.092Z,25.50
2022-07-26T05:34:01.069Z,25.51
2022-07-26T05:35:01.064Z,25.52
2022-07-26T05:36:01.042Z,25.50
2022-07-26T05:37:01.055Z,25.52
2022-07-26T05:38:01.022Z,25.54
2022-07-26T05:39:01.053Z,25.54
2022-07-26T05:40:01.011Z,25.54
2022-07-26T05:41:00.985Z,25.55
2022-07-26T05:42:00.995Z,25.57
2022-07-26T05:43:00.968Z,25.58
2022-07-26T05:44:00.966Z,25.58
2022-07-26T05:45:00.960Z,25.60
2022-07-26T05:46:01.012Z,25.61
2022-07-26T05:47:00.937Z,25.62
2022-07-26T05:48:00.913Z,25.64
2022-07-26T05:49:00.964Z,25.64
2022-07-26T05:50:00.904Z,25.69
2022-07-26T05:51:00.878Z,25.69
2022-07-26T05:52:01.373Z,25.69
2022-07-26T05:53:00.859Z,25.72
2022-07-26T05:54:00.840Z,25.70
2022-07-26T05:55:00.843Z,25.73
2022-07-26T05:56:00.841Z,25.73
2022-07-26T05:57:00.841Z,25.73
2022-07-26T05:58:00.801Z,25.76
2022-07-26T05:59:00.801Z,25.76
2022-07-26T06:00:00.804Z,25.77
2022-07-26T06:01:00.807Z,25.77
2022-07-26T06:02:00.821Z,25.77
2022-07-26T06:03:00.753Z,25.77
2022-07-26T06:04:00.803Z,25.79
2022-07-26T06:05:00.733Z,25.79
2022-07-26T06:06:00.714Z,25.79
2022-07-26T06:07:00.725Z,25.80
2022-07-26T06:08:00.706Z,25.82
2022-07-26T06:09:00.704Z,25.82
2022-07-26T06:10:00.674Z,25.83
2022-07-26T06:11:00.685Z,25.83
2022-07-26T06:12:00.656Z,25.83
2022-07-26T06:13:00.656Z,25.83
2022-07-26T06:14:00.634Z,25.83
2022-07-26T06:15:00.651Z,25.83
2022-07-26T06:16:00.648Z,25.83
2022-07-26T06:17:00.683Z,25.82
2022-07-26T06:18:00.591Z,25.82
2022-07-26T06:19:00.592Z,25.83
2022-07-26T06:20:00.570Z,25.82
2022-07-26T06:21:02.459Z,25.80
2022-07-26T06:22:00.550Z,25.82
2022-07-26T06:23:00.541Z,25.82
2022-07-26T06:24:00.531Z,25.82
2022-07-26T06:25:00.548Z,25.82
2022-07-26T06:26:00.532Z,25.80
2022-07-26T06:27:05.262Z,25.80
2022-07-26T06:28:01.481Z,25.80
2022-07-26T06:29:00.502Z,25.80
2022-07-26T06:30:00.472Z,25.82
2022-07-26T06:31:00.485Z,25.80
2022-07-26T06:32:00.570Z,25.80
2022-07-26T06:33:00.445Z,25.80
2022-07-26T06:34:00.422Z,25.82
2022-07-26T06:35:00.415Z,25.80
2022-07-26T06:36:00.409Z,25.80
2022-07-26T06:37:00.411Z,25.80
2022-07-26T06:38:00.381Z,25.82
2022-07-26T06:39:00.381Z,25.80
2022-07-26T06:40:00.372Z,25.82
2022-07-26T06:41:00.367Z,25.82
2022-07-26T06:42:00.333Z,25.82
2022-07-26T06:43:04.337Z,25.82
2022-07-26T06:44:00.319Z,25.82
2022-07-26T06:45:00.306Z,25.80
2022-07-26T06:46:00.361Z,25.80
2022-07-26T06:47:00.278Z,25.82
2022-07-26T06:48:00.270Z,25.80
2022-07-26T06:49:00.286Z,25.82
2022-07-26T06:50:00.258Z,25.80
2022-07-26T06:51:00.271Z,25.79
2022-07-26T06:52:00.230Z,25.80
2022-07-26T06:53:00.214Z,25.80
2022-07-26T06:54:00.977Z,25.82
2022-07-26T06:55:00.198Z,25.80
2022-07-26T06:56:00.204Z,25.80
2022-07-26T06:57:00.179Z,25.80
2022-07-26T06:58:00.166Z,25.80
2022-07-26T06:59:00.147Z,25.82
2022-07-26T07:00:00.167Z,25.82
2022-07-26T07:01:00.238Z,25.83
2022-07-26T07:02:00.796Z,25.83
2022-07-26T07:03:00.113Z,25.83
2022-07-26T07:04:00.099Z,25.83
2022-07-26T07:05:00.234Z,25.83
2022-07-26T07:06:00.096Z,25.85
2022-07-26T07:07:00.081Z,25.83
2022-07-26T07:08:00.067Z,25.82
2022-07-26T07:09:00.069Z,25.82
2022-07-26T07:10:00.044Z,25.83
2022-07-26T07:11:00.037Z,25.82
2022-07-26T07:12:03.405Z,25.85
2022-07-26T07:13:01.001Z,25.83
2022-07-26T07:14:00.001Z,25.82
2022-07-26T07:14:59.991Z,25.83
2022-07-26T07:16:00.025Z,25.85
2022-07-26T07:16:59.960Z,25.82
2022-07-26T07:17:59.953Z,25.83
2022-07-26T07:18:59.934Z,25.85
2022-07-26T07:19:59.952Z,25.83
2022-07-26T07:20:59.914Z,25.85
2022-07-26T07:21:59.913Z,25.87
2022-07-26T07:22:59.901Z,25.83
2022-07-26T07:23:59.886Z,25.85
2022-07-26T07:24:59.884Z,25.83
2022-07-26T07:25:59.903Z,25.85
2022-07-26T07:26:59.845Z,25.85
2022-07-26T07:27:59.851Z,25.83
2022-07-26T07:28:59.826Z,25.85
2022-07-26T07:30:00.499Z,25.85
2022-07-26T07:30:59.807Z,25.85
2022-07-26T07:31:59.864Z,25.88
2022-07-26T07:32:59.785Z,25.85
2022-07-26T07:33:59.788Z,25.87
2022-07-26T07:34:59.777Z,25.85
2022-07-26T07:35:59.758Z,25.83
2022-07-26T07:36:59.754Z,25.83
2022-07-26T07:37:59.763Z,25.83
2022-07-26T07:39:04.413Z,25.83
2022-07-26T07:40:00.728Z,25.82
2022-07-26T07:40:59.695Z,25.80
2022-07-26T07:41:59.690Z,25.80
2022-07-26T07:42:59.683Z,25.80
2022-07-26T07:43:59.673Z,25.82
2022-07-26T07:44:59.662Z,25.80
2022-07-26T07:45:59.652Z,25.82
2022-07-26T07:46:59.994Z,25.82
2022-07-26T07:47:59.633Z,25.82
2022-07-26T07:48:59.698Z,25.83
2022-07-26T07:49:59.625Z,25.82
2022-07-26T07:50:59.583Z,25.83
2022-07-26T07:51:59.576Z,25.83
2022-07-26T07:52:59.566Z,25.85
2022-07-26T07:54:02.438Z,25.87
2022-07-26T07:55:36.025Z,25.85
2022-07-26T07:56:00.537Z,25.85
2022-07-26T07:56:59.531Z,25.85
2022-07-26T07:57:59.517Z,25.85
2022-07-26T07:58:59.496Z,25.85
2022-07-26T07:59:59.509Z,25.83
2022-07-26T08:00:59.522Z,25.83
2022-07-26T08:01:59.469Z,25.87
2022-07-26T08:02:59.458Z,25.85
2022-07-26T08:03:59.467Z,25.85
2022-07-26T08:05:03.157Z,25.83
2022-07-26T08:06:00.421Z,25.85
2022-07-26T08:06:59.421Z,25.83
2022-07-26T08:07:59.410Z,25.83
2022-07-26T08:08:59.411Z,25.83
2022-07-26T08:09:59.413Z,25.83
2022-07-26T08:10:59.372Z,25.83
2022-07-26T08:11:59.360Z,25.83
2022-07-26T08:12:59.372Z,25.83
2022-07-26T08:13:59.341Z,25.85
2022-07-26T08:14:59.337Z,25.85
2022-07-26T08:15:59.581Z,25.85
2022-07-26T08:16:59.366Z,25.87
2022-07-26T08:17:59.305Z,25.87
2022-07-26T08:18:59.275Z,25.88
2022-07-26T08:20:00.440Z,25.88
2022-07-26T08:20:59.256Z,25.88
2022-07-26T08:21:59.250Z,25.88
2022-07-26T08:22:59.235Z,25.90
2022-07-26T08:23:59.241Z,25.90
2022-07-26T08:24:59.232Z,25.90
2022-07-26T08:26:03.234Z,25.90
2022-07-26T08:27:00.209Z,25.91
2022-07-26T08:28:09.269Z,25.90
2022-07-26T08:29:00.583Z,25.91
2022-07-26T08:29:59.202Z,25.92
2022-07-26T08:30:59.292Z,25.92
2022-07-26T08:31:59.219Z,25.92
2022-07-26T08:32:59.130Z,25.94
2022-07-26T08:33:59.161Z,25.94
2022-07-26T08:35:16.797Z,25.94
2022-07-26T08:36:00.101Z,25.94
2022-07-26T08:37:16.018Z,25.94
2022-07-26T08:38:00.085Z,25.97
2022-07-26T08:38:59.062Z,25.97
2022-07-26T08:39:59.075Z,25.97
2022-07-26T08:40:59.044Z,25.98
2022-07-26T08:41:59.043Z,25.98
2022-07-26T08:42:59.043Z,25.98
2022-07-26T08:43:59.033Z,25.98
2022-07-26T08:44:59.027Z,25.99
2022-07-26T08:45:59.006Z,25.99
2022-07-26T08:46:59.048Z,25.99
2022-07-26T08:49:00.000Z,25.99
2022-07-26T08:49:58.978Z,25.98
2022-07-26T08:50:58.942Z,25.99
2022-07-26T08:51:58.937Z,25.99
2022-07-26T08:52:58.929Z,25.98
2022-07-26T08:54:04.834Z,25.97
2022-07-26T08:54:59.958Z,25.97
2022-07-26T08:56:06.809Z,25.98
2022-07-26T08:56:59.878Z,25.98
2022-07-26T08:57:58.891Z,25.97
2022-07-26T08:58:58.859Z,25.98
2022-07-26T08:59:58.935Z,25.98
2022-07-26T09:00:58.931Z,25.99
2022-07-26T09:01:58.853Z,25.98
2022-07-26T09:02:58.812Z,26.01
2022-07-26T09:03:58.888Z,25.99
2022-07-26T09:04:58.802Z,25.99
2022-07-26T09:05:58.796Z,25.99
2022-07-26T09:06:58.787Z,25.99
2022-07-26T09:07:58.840Z,25.99
2022-07-26T09:08:58.783Z,25.99
2022-07-26T09:09:58.753Z,26.01
2022-07-26T09:10:58.736Z,26.01
2022-07-26T09:11:58.725Z,26.02
2022-07-26T09:12:58.717Z,26.02
2022-07-26T09:13:58.768Z,26.02
2022-07-26T09:14:58.686Z,26.02
2022-07-26T09:15:58.732Z,26.02
2022-07-26T09:16:58.701Z,26.05
2022-07-26T09:17:58.682Z,26.05
2022-07-26T09:18:58.660Z,26.05
2022-07-26T09:19:58.661Z,26.02
2022-07-26T09:20:58.629Z,26.02
2022-07-26T09:21:58.617Z,26.05
2022-07-26T09:22:58.609Z,26.02
2022-07-26T09:23:58.681Z,26.05
2022-07-26T09:24:58.601Z,26.05
2022-07-26T09:25:58.572Z,26.05
2022-07-26T09:26:58.562Z,26.05
2022-07-26T09:27:58.560Z,26.06
2022-07-26T09:28:58.552Z,26.06
2022-07-26T09:29:58.533Z,26.06
2022-07-26T09:30:58.562Z,26.06
2022-07-26T09:31:58.676Z,26.07
2022-07-26T09:32:59.027Z,26.06
2022-07-26T09:33:58.514Z,26.06
2022-07-26T09:34:59.114Z,26.05
2022-07-26T09:35:58.473Z,26.07
2022-07-26T09:36:58.466Z,26.06
2022-07-26T09:37:58.444Z,26.07
2022-07-26T09:38:58.449Z,26.07
2022-07-26T09:39:58.437Z,26.09
2022-07-26T09:40:58.436Z,26.09
2022-07-26T09:42:24.867Z,26.10
2022-07-26T09:42:59.397Z,26.09
2022-07-26T09:43:58.464Z,26.12
2022-07-26T09:44:58.371Z,26.12
2022-07-26T09:45:58.381Z,26.10
2022-07-26T09:46:58.423Z,26.12
2022-07-26T09:47:58.352Z,26.12
2022-07-26T09:49:13.665Z,26.13
2022-07-26T09:49:59.329Z,26.12
2022-07-26T09:50:58.309Z,26.13
2022-07-26T09:51:58.337Z,26.13
2022-07-26T09:52:58.305Z,26.13
2022-07-26T09:53:58.292Z,26.13
2022-07-26T09:54:58.261Z,26.15
2022-07-26T09:55:58.258Z,26.17
2022-07-26T09:56:58.240Z,26.18
2022-07-26T09:57:58.274Z,26.17
2022-07-26T09:58:58.233Z,26.17
2022-07-26T09:59:58.224Z,26.20
2022-07-26T10:01:02.298Z,26.18
2022-07-26T10:01:58.286Z,26.20
2022-07-26T10:02:59.063Z,26.21
2022-07-26T10:03:58.180Z,26.21
2022-07-26T10:04:58.155Z,26.18
2022-07-26T10:05:58.174Z,26.20
2022-07-26T10:06:58.127Z,26.21
2022-07-26T10:07:58.147Z,26.21
2022-07-26T10:08:58.122Z,26.21
2022-07-26T10:09:58.117Z,26.23
2022-07-26T10:10:58.106Z,26.23
2022-07-26T10:11:58.107Z,26.25
2022-07-26T10:12:58.111Z,26.25
2022-07-26T10:13:58.119Z,26.26
2022-07-26T10:14:58.059Z,26.26
2022-07-26T10:15:58.079Z,26.28
2022-07-26T10:16:58.038Z,26.26
2022-07-26T10:17:58.051Z,26.28
2022-07-26T10:18:58.008Z,26.29
2022-07-26T10:19:58.001Z,26.29
2022-07-26T10:20:57.999Z,26.29
2022-07-26T10:21:57.983Z,26.30
2022-07-26T10:22:57.992Z,26.30
2022-07-26T10:23:57.973Z,26.30
2022-07-26T10:24:58.600Z,26.32
2022-07-26T10:25:57.933Z,26.32
2022-07-26T10:26:57.933Z,26.32
2022-07-26T10:27:57.972Z,26.33
2022-07-26T10:28:57.911Z,26.33
2022-07-26T10:29:57.907Z,26.33
2022-07-26T10:30:57.909Z,26.35
2022-07-26T10:31:57.939Z,26.36
2022-07-26T10:32:57.876Z,26.36
2022-07-26T10:33:57.858Z,26.36
2022-07-26T10:34:57.836Z,26.36
2022-07-26T10:35:57.869Z,26.37
2022-07-26T10:36:57.831Z,26.37
2022-07-26T10:37:57.829Z,26.37
2022-07-26T10:38:57.807Z,26.39
2022-07-26T10:39:57.789Z,26.39
2022-07-26T10:40:57.810Z,26.39
2022-07-26T10:41:57.779Z,26.39
2022-07-26T10:42:57.769Z,26.40
2022-07-26T10:43:57.764Z,26.40
2022-07-26T10:44:57.751Z,26.40
2022-07-26T10:45:57.817Z,26.40
2022-07-26T10:46:57.819Z,26.43
2022-07-26T10:47:57.732Z,26.43
2022-07-26T10:48:57.753Z,26.43
2022-07-26T10:49:57.682Z,26.44
2022-07-26T10:50:57.679Z,26.43
2022-07-26T10:51:57.663Z,26.40
2022-07-26T10:52:57.668Z,26.39
2022-07-26T10:53:57.634Z,26.37
2022-07-26T10:54:57.635Z,26.36
2022-07-26T10:55:57.623Z,26.36
2022-07-26T10:56:57.618Z,26.33
2022-07-26T10:57:57.634Z,26.33
2022-07-26T10:58:57.586Z,26.32
2022-07-26T10:59:57.688Z,26.33
2022-07-26T11:00:57.586Z,26.32
2022-07-26T11:01:57.590Z,26.32
2022-07-26T11:02:57.700Z,26.30
2022-07-26T11:03:57.537Z,26.32
2022-07-26T11:04:57.530Z,26.30
2022-07-26T11:05:57.521Z,26.32
2022-07-26T11:06:57.530Z,26.32
2022-07-26T11:07:57.502Z,26.32
2022-07-26T11:08:57.589Z,26.33
2022-07-26T11:09:57.581Z,26.35
2022-07-26T11:10:57.573Z,26.35
2022-07-26T11:11:57.672Z,26.35
2022-07-26T11:12:57.597Z,26.36
2022-07-26T11:13:57.543Z,26.37
2022-07-26T11:14:57.414Z,26.40
2022-07-26T11:15:57.495Z,26.40
2022-07-26T11:16:57.412Z,26.40
2022-07-26T11:17:57.423Z,26.43
2022-07-26T11:18:57.375Z,26.44
2022-07-26T11:19:58.152Z,26.44
2022-07-26T11:20:57.374Z,26.45
2022-07-26T11:21:57.395Z,26.45
2022-07-26T11:22:57.339Z,26.48
2022-07-26T11:23:57.316Z,26.48
2022-07-26T11:24:57.318Z,26.48
2022-07-26T11:26:02.109Z,26.50
2022-07-26T11:26:58.306Z,26.51
2022-07-26T11:27:57.278Z,26.51
2022-07-26T11:28:57.269Z,26.51
2022-07-26T11:29:58.038Z,26.52
2022-07-26T11:30:57.277Z,26.54
2022-07-26T11:32:00.061Z,26.55
2022-07-26T11:32:58.241Z,26.57
2022-07-26T11:33:57.209Z,26.55
2022-07-26T11:34:57.999Z,26.57
2022-07-26T11:35:57.202Z,26.57
2022-07-26T11:36:57.952Z,26.58
2022-07-26T11:38:07.833Z,26.60
2022-07-26T11:38:58.941Z,26.60
2022-07-26T11:39:57.156Z,26.62
2022-07-26T11:40:57.144Z,26.62
2022-07-26T11:41:57.143Z,26.63
2022-07-26T11:42:57.129Z,26.63
2022-07-26T11:44:02.121Z,26.63
2022-07-26T11:44:58.119Z,26.62
2022-07-26T11:45:57.153Z,26.63
2022-07-26T11:46:57.096Z,26.65
2022-07-26T11:47:57.065Z,26.65
2022-07-26T11:48:57.150Z,26.65
2022-07-26T11:50:58.037Z,26.65
2022-07-26T11:51:57.035Z,26.65
2022-07-26T11:52:57.029Z,26.66
2022-07-26T11:53:56.999Z,26.67
2022-07-26T11:54:56.989Z,26.66
2022-07-26T11:55:56.983Z,26.67
2022-07-26T11:56:56.999Z,26.67
2022-07-26T11:57:57.439Z,26.66
2022-07-26T11:58:56.949Z,26.67
2022-07-26T11:59:56.941Z,26.67
2022-07-26T12:00:56.941Z,26.67
2022-07-26T12:01:56.944Z,26.67
2022-07-26T12:02:56.919Z,26.67
2022-07-26T12:03:56.936Z,26.69
2022-07-26T12:04:57.118Z,26.67
2022-07-26T12:05:56.975Z,26.67
2022-07-26T12:06:56.904Z,26.67
2022-07-26T12:07:56.884Z,26.66
2022-07-26T12:08:56.846Z,26.66
2022-07-26T12:09:56.844Z,26.67
2022-07-26T12:10:56.849Z,26.67
2022-07-26T12:11:56.846Z,26.67
2022-07-26T12:12:56.830Z,26.69
2022-07-26T12:13:56.806Z,26.69
2022-07-26T12:14:56.895Z,26.67
2022-07-26T12:15:56.807Z,26.69
2022-07-26T12:16:56.834Z,26.67
2022-07-26T12:17:56.758Z,26.67
2022-07-26T12:18:56.757Z,26.66
2022-07-26T12:19:56.727Z,26.65
2022-07-26T12:21:00.669Z,26.66
2022-07-26T12:21:57.711Z,26.66
2022-07-26T12:22:56.709Z,26.65
2022-07-26T12:23:56.688Z,26.66
2022-07-26T12:24:56.697Z,26.65
2022-07-26T12:25:56.660Z,26.67
2022-07-26T12:26:56.675Z,26.66
2022-07-26T12:27:56.640Z,26.66
2022-07-26T12:28:56.661Z,26.65
2022-07-26T12:29:56.622Z,26.66
2022-07-26T12:30:56.639Z,26.66
2022-07-26T12:31:57.563Z,26.65
2022-07-26T12:32:56.583Z,26.66
2022-07-26T12:33:56.570Z,26.66
2022-07-26T12:34:56.576Z,26.67
2022-07-26T12:35:56.557Z,26.66
2022-07-26T12:36:56.554Z,26.66
2022-07-26T12:37:56.529Z,26.66
2022-07-26T12:38:56.537Z,26.66
2022-07-26T12:39:56.785Z,26.67
2022-07-26T12:40:56.556Z,26.69
2022-07-26T12:41:56.781Z,26.67
2022-07-26T12:43:00.772Z,26.69
2022-07-26T12:43:57.477Z,26.70
2022-07-26T12:44:56.467Z,26.69
2022-07-26T12:45:56.512Z,26.72
2022-07-26T12:46:56.449Z,26.72
2022-07-26T12:47:56.466Z,26.70
2022-07-26T12:49:00.218Z,26.73
2022-07-26T12:49:56.400Z,26.73
2022-07-26T12:50:56.390Z,26.73
2022-07-26T12:51:56.388Z,26.72
2022-07-26T12:52:56.371Z,26.73
2022-07-26T12:53:56.365Z,26.73
2022-07-26T12:54:56.351Z,26.75
2022-07-26T12:55:56.352Z,26.75